Latest Weather Observations for Lake Grace

IDW60801

Issued at 4:02 pm WST Friday 29 May 2015 (issued every 30 minutes, with the page automatically refreshed every 10 minutes)

About weather observations | Map of weather stations | Latest weather observations for WA | Other Formats
Station Details ID: 010911 Name: LAKE GRACE Lat: -33.10 Lon: 118.46 Height: 286.0 m
Data from the previous 72 hours. | See also: Recent months at Lake Grace
Date/Time
WST
Temp
°C
App
Temp
°C
Dew
Point
Rel
Hum
%
Delta-T
°C
Wind Press
QNH
hPa
Press
MSL
hPa
Rain
since 9 am
mm
Dir
 
Spd
km/h
Gust
km/h
Spd
kts
Gust
kts
29/04:00pm 15.5 12.6 4.8 49 5.1 S 9 15 5 8 1025.1 1024.8 0.0
29/03:30pm 15.7 12.4 4.4 47 5.3 S 11 17 6 9 1025.2 1024.9 0.0
29/03:00pm 15.9 13.4 4.9 48 5.2 S 7 17 4 9 1025.0 1024.7 0.0
29/02:30pm 15.3 13.8 5.2 51 4.9 SSW 2 9 1 5 1024.9 1024.6 0.0
29/02:00pm 15.0 13.7 5.8 54 4.4 ESE 2 7 1 4 1025.0 1024.7 0.0
29/01:30pm 14.8 12.5 5.6 54 4.4 SSW 7 9 4 5 1025.2 1024.9 0.0
29/01:00pm 14.5 11.8 5.6 55 4.3 SSW 9 15 5 8 1025.5 1025.2 0.0
29/12:30pm 15.3 13.1 6.1 54 4.5 ESE 7 11 4 6 1025.8 1025.5 0.0
29/12:00pm 15.3 12.7 6.1 54 4.5 NE 9 15 5 8 1026.2 1025.9 0.0
29/11:30am 14.8 11.8 6.1 56 4.2 ENE 11 19 6 10 1026.7 1026.5 0.0
29/11:00am 14.1 11.3 6.9 62 3.5 ENE 11 17 6 9 1027.2 1027.0 0.0
29/10:30am 13.6 10.6 7.8 68 2.9 NE 13 19 7 10 1027.6 1027.4 0.0
29/10:00am 12.8 9.8 7.7 71 2.5 NE 13 19 7 10 1028.0 1027.7 0.0
29/09:30am 11.7 9.3 8.7 82 1.5 NE 11 15 6 8 1028.1 1027.8 0.0
29/09:00am 10.3 8.9 8.9 91 0.7 E 6 7 3 4 1028.0 1027.7 0.0
29/08:30am 8.7 7.0 7.6 93 0.5 SE 6 7 3 4 1028.0 1027.7 0.0
29/08:00am 7.4 5.5 6.5 94 0.4 SSE 6 7 3 4 1027.6 1027.4 0.0
29/07:30am 6.0 4.1 5.1 94 0.4 S 4 7 2 4 1027.3 1027.1 0.0
29/07:00am 6.1 3.9 5.2 94 0.4 SSE 6 7 3 4 1027.1 1026.9 0.0
29/06:30am 5.7 3.8 4.8 94 0.4 E 4 15 2 8 1026.9 1026.7 0.0
29/06:00am 4.7 2.6 3.7 93 0.4 SE 4 7 2 4 1026.7 1026.5 0.0
29/05:30am 4.8 3.4 3.8 93 0.4 CALM 0 0 0 0 1026.7 1026.5 0.0
29/05:00am 4.8 3.4 3.8 93 0.4 CALM 0 0 0 0 1026.5 1026.3 0.0
29/04:30am 4.2 1.9 2.9 91 0.5 N 4 7 2 4 1026.5 1026.3 0.0
29/04:00am 6.7 4.5 5.3 91 0.6 WSW 6 9 3 5 1026.4 1026.1 0.0
29/03:30am 7.2 5.1 5.7 90 0.7 WNW 6 7 3 4 1026.3 1026.0 0.0
29/03:00am 7.2 5.0 5.5 89 0.8 SSW 6 7 3 4 1026.2 1025.9 0.0
29/02:30am 7.5 5.2 5.8 89 0.8 SSW 7 7 4 4 1026.3 1026.0 0.0
29/02:00am 8.0 5.0 6.1 88 0.9 SSW 11 15 6 8 1026.4 1026.1 0.0
29/01:30am 8.3 6.3 6.4 88 0.9 SSW 6 7 3 4 1026.2 1025.9 0.0
29/01:00am 8.5 6.4 6.5 87 0.9 S 7 11 4 6 1026.2 1025.9 0.0
29/12:30am 9.2 7.1 6.6 84 1.2 S 7 11 4 6 1026.4 1026.1 0.0
29/12:00am 9.7 6.5 7.0 83 1.3 ESE 13 19 7 10 1026.2 1025.9 0.0
 
Date/Time
WST
Temp
°C
App
Temp
°C
Dew
Point
Rel
Hum
%
Delta-T
°C
Wind Press
QNH
hPa
Press
MSL
hPa
Rain
since 9 am
mm
Dir
 
Spd
km/h
Gust
km/h
Spd
kts
Gust
kts
28/11:30pm 10.1 7.3 7.0 81 1.5 ESE 11 17 6 9 1026.3 1026.0 0.0
28/11:00pm 10.3 7.8 6.6 78 1.8 ESE 9 17 5 9 1026.4 1026.1 0.0
28/10:30pm 10.3 8.2 6.8 79 1.7 SE 7 11 4 6 1026.5 1026.3 0.0
28/10:00pm 10.3 7.0 6.6 78 1.8 ESE 13 19 7 10 1026.6 1026.4 0.0
28/09:30pm 10.6 8.1 6.4 75 2.0 SSE 9 15 5 8 1026.4 1026.1 0.0
28/09:00pm 11.2 8.3 6.5 73 2.2 SSE 11 19 6 10 1026.5 1026.3 0.0
28/08:30pm 11.4 7.4 6.5 72 2.3 SE 17 26 9 14 1026.3 1026.0 0.0
28/08:00pm 11.8 7.4 6.7 71 2.4 SE 19 30 10 16 1025.9 1025.6 0.0
28/07:30pm 12.2 8.6 6.7 69 2.7 SE 15 20 8 11 1025.5 1025.2 0.0
28/07:00pm 12.4 8.4 6.5 67 2.8 SE 17 26 9 14 1025.1 1024.8 0.0
28/06:30pm 13.2 9.6 6.8 65 3.1 SE 15 20 8 11 1024.8 1024.5 0.0
28/06:00pm 13.4 10.2 6.7 64 3.3 SE 13 22 7 12 1024.3 1024.0 0.0
28/05:30pm 13.7 10.8 6.6 62 3.5 SE 11 13 6 7 1023.9 1023.7 0.0
28/05:00pm 13.7 11.6 6.6 62 3.5 SE 7 13 4 7 1023.8 1023.6 0.0
28/04:30pm 13.8 11.3 6.4 61 3.6 SE 9 11 5 6 1023.7 1023.5 0.0
28/04:00pm 14.9 10.9 6.7 58 4.0 SE 17 22 9 12 1023.5 1023.3 0.0
28/03:30pm 15.0 12.0 6.0 55 4.4 SE 11 17 6 9 1023.3 1023.0 0.0
28/03:00pm 14.7 12.2 6.5 58 4.0 SE 9 15 5 8 1023.4 1023.1 0.0
28/02:30pm 14.0 11.1 6.6 61 3.6 SE 11 17 6 9 1023.4 1023.1 0.0
28/02:00pm 14.8 12.9 6.6 58 4.0 SE 6 15 3 8 1023.4 1023.1 0.0
28/01:30pm 13.9 11.8 6.7 62 3.5 SE 7 11 4 6 1023.6 1023.4 0.0
28/01:00pm 14.0 12.2 7.8 66 3.1 ESE 7 15 4 8 1023.8 1023.6 0.0
28/12:30pm 12.7 10.9 7.2 69 2.7 S 6 9 3 5 1024.1 1023.9 0.0
28/12:00pm 12.6 10.4 7.9 73 2.3 SSE 9 15 5 8 1024.5 1024.2 0.0
28/11:30am 10.8 9.0 8.0 83 1.4 SSE 7 11 4 6 1025.1 1024.8 0.0
28/11:00am 10.2 8.2 8.6 90 0.8 SSE 9 15 5 8 1025.3 1025.0 0.0
28/10:30am 9.2 7.1 8.4 95 0.4 SSE 9 11 5 6 1025.5 1025.2 0.0
28/10:00am 8.6 6.8 8.0 96 0.3 S 7 13 4 7 1025.4 1025.1 0.0
28/09:30am 7.8 5.4 7.2 96 0.3 SE 9 13 5 7 1025.4 1025.1 0.0
28/09:00am 7.4 5.0 6.8 96 0.3 SSE 9 13 5 7 1025.3 1025.0 0.0
28/08:30am 7.4 4.9 6.7 95 0.3 SSE 9 11 5 6 1024.9 1024.6 0.0
28/08:00am 7.4 4.9 6.7 95 0.3 SE 9 13 5 7 1024.5 1024.2 0.0
28/07:30am 6.1 3.9 5.4 95 0.3 SE 6 9 3 5 1024.3 1024.0 0.0
28/07:00am 3.7 1.8 2.7 93 0.4 SE 2 6 1 3 1024.0 1023.8 0.0
28/06:30am 5.1 2.7 4.1 93 0.4 ESE 6 7 3 4 1023.7 1023.5 0.0
28/06:00am 5.4 3.4 4.2 92 0.5 SSE 4 6 2 3 1023.2 1022.9 0.0
28/05:30am 5.6 3.2 4.2 91 0.6 SE 6 7 3 4 1022.9 1022.6 0.0
28/05:00am 5.9 3.5 4.5 91 0.6 SE 6 7 3 4 1022.8 1022.5 0.0
28/04:30am 5.9 3.5 4.2 89 0.7 SSE 6 7 3 4 1022.7 1022.4 0.0
28/04:00am 6.3 3.9 4.5 88 0.8 SSE 6 6 3 3 1022.5 1022.2 0.0
28/03:30am 6.3 4.3 4.3 87 0.9 S 4 6 2 3 1022.4 1022.1 0.0
28/03:00am 6.5 5.2 4.3 86 1.0 CALM 0 0 0 0 1022.4 1022.1 0.0
28/02:30am 7.0 5.8 4.7 85 1.0 CALM 0 0 0 0 1022.3 1022.0 0.0
28/02:00am 7.8 6.7 4.9 82 1.3 CALM 0 0 0 0 1022.3 1022.0 0.0
28/01:30am 8.6 7.6 5.7 82 1.3 CALM 0 0 0 0 1022.2 1021.9 0.0
28/01:00am 8.6 7.6 5.7 82 1.3 CALM 0 0 0 0 1022.2 1021.9 0.0
28/12:30am 8.5 7.4 5.3 80 1.5 CALM 0 0 0 0 1022.4 1022.1 0.0
28/12:00am 8.0 7.0 5.5 84 1.1 CALM 0 6 0 3 1022.4 1022.1 0.0
 
Date/Time
WST
Temp
°C
App
Temp
°C
Dew
Point
Rel
Hum
%
Delta-T
°C
Wind Press
QNH
hPa
Press
MSL
hPa
Rain
since 9 am
mm
Dir
 
Spd
km/h
Gust
km/h
Spd
kts
Gust
kts
27/11:30pm 7.6 6.4 4.7 82 1.3 CALM 0 0 0 0 1022.4 1022.1 0.0
27/11:00pm 8.0 6.8 4.4 78 1.6 CALM 0 0 0 0 1022.3 1022.0 0.0
27/10:30pm 8.8 7.6 4.8 76 1.8 CALM 0 0 0 0 1022.3 1022.0 0.0
27/10:00pm 9.7 8.7 5.7 76 1.9 CALM 0 0 0 0 1022.4 1022.1 0.0
27/09:30pm 9.4 8.3 5.2 75 1.9 CALM 0 0 0 0 1022.4 1022.1 0.0
27/09:00pm 9.1 7.9 4.7 74 2.0 CALM 0 0 0 0 1022.4 1022.1 0.0
27/08:30pm 8.8 7.3 4.8 76 1.8 N 2 7 1 4 1022.2 1021.9 0.0
27/08:00pm 8.7 6.3 4.1 73 2.0 NNW 6 7 3 4 1021.9 1021.6 0.0
27/07:30pm 9.9 8.8 4.9 71 2.3 CALM 0 0 0 0 1021.7 1021.4 0.0
27/07:00pm 10.5 9.4 5.1 69 2.5 CALM 0 0 0 0 1021.7 1021.4 0.0
27/06:30pm 11.0 9.0 4.5 64 3.0 E 4 6 2 3 1021.4 1021.1 0.0
27/06:00pm 11.7 9.3 4.2 60 3.4 S 6 7 3 4 1021.2 1020.9 0.0
27/05:30pm 12.6 10.2 4.3 57 3.8 S 6 9 3 5 1021.1 1020.8 0.0
27/05:00pm 13.3 9.9 3.9 53 4.3 SSW 11 19 6 10 1020.9 1020.6 0.0
27/04:30pm 13.7 10.7 4.0 52 4.5 SSW 9 13 5 7 1020.8 1020.5 0.0
27/04:00pm 14.9 11.6 4.3 49 5.0 SSW 11 17 6 9 1020.8 1020.5 0.0
27/03:30pm 14.9 11.1 3.7 47 5.2 SW 13 19 7 10 1020.7 1020.4 0.0
27/03:00pm 14.6 11.1 3.4 47 5.1 SW 11 19 6 10 1020.9 1020.6 0.0
27/02:30pm 14.6 11.1 3.4 47 5.2 SW 11 17 6 9 1020.9 1020.6 0.0
27/02:00pm 13.8 10.0 3.9 51 4.6 S 13 22 7 12 1021.2 1020.9 0.0
27/01:30pm 14.0 10.1 3.5 49 4.8 WSW 13 22 7 12 1021.4 1021.1 0.0
27/01:00pm 13.6 9.8 3.7 51 4.5 WSW 13 20 7 11 1021.7 1021.4 0.0
27/12:30pm 13.4 9.2 3.8 52 4.4 WSW 15 20 8 11 1022.1 1021.8 0.0
27/12:00pm 13.5 9.8 4.4 54 4.2 SW 13 20 7 11 1022.6 1022.3 0.0
27/11:30am 12.9 9.1 4.1 55 4.1 SW 13 19 7 10 1023.1 1022.8 0.0
27/11:00am 12.3 8.4 3.5 55 4.0 SSW 13 24 7 13 1023.6 1023.4 0.0
27/10:30am 12.4 8.7 4.4 58 3.7 SW 13 19 7 10 1023.8 1023.6 0.0
27/10:00am 12.3 8.7 4.8 60 3.5 SW 13 19 7 10 1023.9 1023.7 0.0
27/09:30am 11.5 8.4 5.6 67 2.8 SSW 11 17 6 9 1024.0 1023.8 0.0
27/09:00am 10.8 8.6 6.4 74 2.1 S 7 11 4 6 1023.9 1023.7 0.0
27/08:30am 10.2 8.3 7.6 84 1.3 S 7 11 4 6 1023.7 1023.5 0.0
27/08:00am 9.7 8.2 8.3 91 0.7 S 6 9 3 5 1023.6 1023.4 0.0
27/07:30am 8.4 7.8 7.3 93 0.5 CALM 0 0 0 0 1023.4 1023.1 0.0
27/07:00am 8.0 6.9 6.8 92 0.6 ESE 2 6 1 3 1023.3 1023.0 0.0
27/06:30am 8.0 7.3 6.8 92 0.6 CALM 0 0 0 0 1023.1 1022.8 0.0
27/06:00am 8.3 7.6 6.9 91 0.7 CALM 0 0 0 0 1022.8 1022.5 0.0
27/05:30am 8.9 8.3 7.4 90 0.7 CALM 0 0 0 0 1022.6 1022.3 0.0
27/05:00am 9.0 8.4 7.5 90 0.7 CALM 0 0 0 0 1022.5 1022.2 0.0
27/04:30am 9.0 8.4 7.5 90 0.7 CALM 0 0 0 0 1022.6 1022.3 0.0
27/04:00am 9.2 7.9 7.6 90 0.8 N 4 9 2 5 1022.4 1022.1 0.0
27/03:30am 9.6 9.1 8.0 90 0.8 CALM 0 0 0 0 1022.5 1022.2 0.0
27/03:00am 9.5 9.0 7.9 90 0.8 CALM 0 0 0 0 1022.7 1022.4 0.0
27/02:30am 9.5 9.0 7.8 89 0.8 CALM 0 0 0 0 1022.7 1022.4 0.0
27/02:00am 9.4 8.9 8.0 91 0.7 CALM 0 0 0 0 1023.0 1022.7 0.0
27/01:30am 9.0 8.4 7.6 91 0.7 CALM 0 0 0 0 1023.0 1022.7 0.0
27/01:00am 8.4 7.8 7.2 92 0.6 CALM 0 0 0 0 1023.0 1022.7 0.0
27/12:30am 7.8 7.0 6.6 92 0.6 CALM 0 0 0 0 1023.3 1023.0 0.0
27/12:00am 7.9 7.1 6.5 91 0.6 CALM 0 0 0 0 1023.5 1023.3 0.0
 
Date/Time
WST
Temp
°C
App
Temp
°C
Dew
Point
Rel
Hum
%
Delta-T
°C
Wind Press
QNH
hPa
Press
MSL
hPa
Rain
since 9 am
mm
Dir
 
Spd
km/h
Gust
km/h
Spd
kts
Gust
kts
26/11:30pm 8.2 7.1 6.7 90 0.7 S 2 6 1 3 1023.6 1023.4 0.0
26/11:00pm 9.1 8.1 7.4 89 0.8 SSE 2 6 1 3 1023.8 1023.6 0.0
26/10:30pm 9.1 7.4 7.4 89 0.8 ESE 6 7 3 4 1023.9 1023.7 0.0
26/10:00pm 8.9 6.9 7.2 89 0.8 SE 7 9 4 5 1024.0 1023.8 0.0
26/09:30pm 8.9 7.1 7.2 89 0.8 S 6 9 3 5 1024.0 1023.8 0.0
26/09:00pm 9.2 7.2 7.3 88 0.9 SSE 7 9 4 5 1024.0 1023.8 0.0
26/08:30pm 9.7 8.0 7.6 87 1.0 SE 6 9 3 5 1024.0 1023.8 0.0
26/08:00pm 9.9 8.0 7.7 86 1.1 SE 7 9 4 5 1023.8 1023.6 0.0
26/07:30pm 10.6 8.8 8.0 84 1.3 SSE 7 9 4 5 1023.5 1023.3 0.0
26/07:00pm 11.4 9.3 8.4 82 1.5 SSE 9 13 5 7 1023.2 1022.9 0.0
26/06:30pm 11.9 10.2 8.2 78 1.8 SE 7 11 4 6 1022.9 1022.6 0.0
26/06:00pm 12.6 10.9 8.3 75 2.2 SSE 7 11 4 6 1022.7 1022.4 0.0
26/05:30pm 13.6 11.2 8.7 72 2.5 S 11 15 6 8 1022.4 1022.1 0.0
26/05:00pm 14.5 11.8 8.9 69 2.9 S 13 19 7 10 1022.2 1021.9 0.0
26/04:30pm 15.8 13.4 8.8 63 3.6 S 11 15 6 8 1022.0 1021.7 0.0

Other Formats:

Comma delimited format used in spreadsheet applications
http://www.bom.gov.au/fwo/IDW60801/IDW60801.95637.axf

JavaScript Object Notation format (JSON) in row-major order
http://www.bom.gov.au/fwo/IDW60801/IDW60801.95637.json